sensor_id;sensor_type;location;lat;lon;timestamp;pressure;altitude;pressure_sealevel;temperature;humidity
4745;BME280;2386;42.138;24.746;2022-12-24T00:00:55;99509.94;;;4.21;100.00
4745;BME280;2386;42.138;24.746;2022-12-24T00:03:21;99508.06;;;4.22;100.00
4745;BME280;2386;42.138;24.746;2022-12-24T00:05:46;99513.44;;;4.22;100.00
4745;BME280;2386;42.138;24.746;2022-12-24T00:08:12;99509.16;;;4.06;100.00
4745;BME280;2386;42.138;24.746;2022-12-24T00:10:37;99512.16;;;3.96;100.00
4745;BME280;2386;42.138;24.746;2022-12-24T00:13:02;99522.78;;;4.05;100.00
4745;BME280;2386;42.138;24.746;2022-12-24T00:15:31;99527.13;;;4.06;100.00
4745;BME280;2386;42.138;24.746;2022-12-24T00:17:56;99526.47;;;4.04;100.00
4745;BME280;2386;42.138;24.746;2022-12-24T00:20:21;99517.41;;;4.05;100.00
4745;BME280;2386;42.138;24.746;2022-12-24T00:22:49;99525.34;;;4.13;100.00
4745;BME280;2386;42.138;24.746;2022-12-24T00:25:14;99519.56;;;3.94;100.00
4745;BME280;2386;42.138;24.746;2022-12-24T00:27:39;99525.06;;;4.08;100.00
4745;BME280;2386;42.138;24.746;2022-12-24T00:30:05;99520.34;;;4.10;100.00
4745;BME280;2386;42.138;24.746;2022-12-24T00:32:31;99514.00;;;3.96;100.00
4745;BME280;2386;42.138;24.746;2022-12-24T00:34:56;99518.94;;;4.14;100.00
4745;BME280;2386;42.138;24.746;2022-12-24T00:37:22;99518.31;;;4.12;100.00
4745;BME280;2386;42.138;24.746;2022-12-24T00:39:47;99524.06;;;4.30;100.00
4745;BME280;2386;42.138;24.746;2022-12-24T00:42:12;99528.09;;;4.19;100.00
4745;BME280;2386;42.138;24.746;2022-12-24T00:44:38;99527.75;;;4.29;100.00
4745;BME280;2386;42.138;24.746;2022-12-24T00:47:03;99505.00;;;4.04;100.00
4745;BME280;2386;42.138;24.746;2022-12-24T00:49:29;99517.72;;;3.95;100.00
4745;BME280;2386;42.138;24.746;2022-12-24T00:51:54;99513.03;;;3.82;100.00
4745;BME280;2386;42.138;24.746;2022-12-24T00:54:19;99518.66;;;3.87;100.00
4745;BME280;2386;42.138;24.746;2022-12-24T00:56:45;99524.81;;;4.03;100.00
4745;BME280;2386;42.138;24.746;2022-12-24T00:59:10;99516.06;;;3.94;100.00
4745;BME280;2386;42.138;24.746;2022-12-24T01:01:35;99512.88;;;4.05;100.00
4745;BME280;2386;42.138;24.746;2022-12-24T01:04:01;99502.75;;;3.86;100.00
4745;BME280;2386;42.138;24.746;2022-12-24T01:06:45;99514.78;;;3.90;100.00
4745;BME280;2386;42.138;24.746;2022-12-24T01:09:10;99503.84;;;3.70;100.00
4745;BME280;2386;42.138;24.746;2022-12-24T01:11:36;99513.19;;;3.95;100.00
4745;BME280;2386;42.138;24.746;2022-12-24T01:14:01;99506.34;;;3.93;100.00
4745;BME280;2386;42.138;24.746;2022-12-24T01:16:27;99500.19;;;3.78;100.00
4745;BME280;2386;42.138;24.746;2022-12-24T01:18:52;99501.03;;;3.78;100.00
4745;BME280;2386;42.138;24.746;2022-12-24T01:21:18;99502.38;;;3.89;100.00
4745;BME280;2386;42.138;24.746;2022-12-24T01:23:43;99489.16;;;3.66;100.00
4745;BME280;2386;42.138;24.746;2022-12-24T01:26:09;99490.63;;;3.69;100.00
4745;BME280;2386;42.138;24.746;2022-12-24T01:28:39;99479.06;;;3.68;100.00
4745;BME280;2386;42.138;24.746;2022-12-24T01:31:15;99497.25;;;3.73;100.00
4745;BME280;2386;42.138;24.746;2022-12-24T01:33:41;99485.75;;;3.79;100.00
4745;BME280;2386;42.138;24.746;2022-12-24T01:39:22;99487.50;;;3.65;100.00
4745;BME280;2386;42.138;24.746;2022-12-24T01:41:47;99488.44;;;3.79;100.00
4745;BME280;2386;42.138;24.746;2022-12-24T01:44:33;99486.16;;;3.76;100.00
4745;BME280;2386;42.138;24.746;2022-12-24T01:47:21;99494.66;;;3.79;100.00
4745;BME280;2386;42.138;24.746;2022-12-24T01:50:12;99492.34;;;3.76;100.00
4745;BME280;2386;42.138;24.746;2022-12-24T01:52:39;99486.75;;;3.71;100.00
4745;BME280;2386;42.138;24.746;2022-12-24T01:55:07;99495.81;;;3.70;100.00
4745;BME280;2386;42.138;24.746;2022-12-24T01:57:41;99482.41;;;3.70;100.00
4745;BME280;2386;42.138;24.746;2022-12-24T02:00:09;99500.53;;;3.68;100.00
4745;BME280;2386;42.138;24.746;2022-12-24T02:02:38;99481.41;;;3.56;100.00
4745;BME280;2386;42.138;24.746;2022-12-24T02:05:08;99480.59;;;3.56;100.00
4745;BME280;2386;42.138;24.746;2022-12-24T02:07:35;99489.16;;;3.66;100.00
4745;BME280;2386;42.138;24.746;2022-12-24T02:10:02;99492.59;;;3.60;100.00
4745;BME280;2386;42.138;24.746;2022-12-24T02:12:31;99482.09;;;3.44;100.00
4745;BME280;2386;42.138;24.746;2022-12-24T02:14:58;99480.06;;;3.46;100.00
4745;BME280;2386;42.138;24.746;2022-12-24T02:17:33;99488.91;;;3.61;100.00
4745;BME280;2386;42.138;24.746;2022-12-24T02:26:22;99487.63;;;3.57;100.00
4745;BME280;2386;42.138;24.746;2022-12-24T02:38:06;99484.66;;;3.52;100.00
4745;BME280;2386;42.138;24.746;2022-12-24T02:40:38;99493.28;;;3.47;100.00
4745;BME280;2386;42.138;24.746;2022-12-24T02:43:10;99493.00;;;3.42;100.00
4745;BME280;2386;42.138;24.746;2022-12-24T02:45:39;99490.31;;;3.42;100.00
4745;BME280;2386;42.138;24.746;2022-12-24T02:48:06;99486.81;;;3.42;100.00
4745;BME280;2386;42.138;24.746;2022-12-24T02:53:55;99498.19;;;3.44;100.00
4745;BME280;2386;42.138;24.746;2022-12-24T02:56:34;99507.53;;;3.33;100.00
4745;BME280;2386;42.138;24.746;2022-12-24T03:07:21;99503.66;;;3.36;100.00
4745;BME280;2386;42.138;24.746;2022-12-24T03:12:44;99485.19;;;3.26;100.00
4745;BME280;2386;42.138;24.746;2022-12-24T03:15:14;99487.59;;;3.21;100.00
4745;BME280;2386;42.138;24.746;2022-12-24T03:17:41;99493.88;;;3.13;100.00
4745;BME280;2386;42.138;24.746;2022-12-24T03:20:10;99482.13;;;3.14;100.00
4745;BME280;2386;42.138;24.746;2022-12-24T03:22:36;99479.19;;;3.09;100.00
4745;BME280;2386;42.138;24.746;2022-12-24T03:28:26;99475.66;;;3.23;100.00
4745;BME280;2386;42.138;24.746;2022-12-24T03:30:52;99473.72;;;3.17;100.00
4745;BME280;2386;42.138;24.746;2022-12-24T03:33:18;99473.81;;;3.09;100.00
4745;BME280;2386;42.138;24.746;2022-12-24T03:35:44;99463.41;;;3.00;100.00
4745;BME280;2386;42.138;24.746;2022-12-24T03:38:09;99481.50;;;3.12;100.00
4745;BME280;2386;42.138;24.746;2022-12-24T03:40:35;99463.16;;;2.94;100.00
4745;BME280;2386;42.138;24.746;2022-12-24T03:43:00;99460.38;;;2.88;100.00
4745;BME280;2386;42.138;24.746;2022-12-24T03:45:26;99475.94;;;3.14;100.00
4745;BME280;2386;42.138;24.746;2022-12-24T03:47:51;99476.94;;;3.27;100.00
4745;BME280;2386;42.138;24.746;2022-12-24T03:50:16;99488.31;;;3.15;100.00
4745;BME280;2386;42.138;24.746;2022-12-24T03:52:42;99469.66;;;3.07;100.00
4745;BME280;2386;42.138;24.746;2022-12-24T03:55:08;99462.38;;;3.15;100.00
4745;BME280;2386;42.138;24.746;2022-12-24T03:57:33;99455.25;;;3.08;100.00
4745;BME280;2386;42.138;24.746;2022-12-24T03:59:59;99447.44;;;2.91;100.00
4745;BME280;2386;42.138;24.746;2022-12-24T04:02:24;99443.66;;;2.86;100.00
4745;BME280;2386;42.138;24.746;2022-12-24T04:04:50;99460.25;;;3.11;100.00
4745;BME280;2386;42.138;24.746;2022-12-24T04:07:15;99464.69;;;3.04;100.00
4745;BME280;2386;42.138;24.746;2022-12-24T04:09:40;99458.97;;;3.07;100.00
4745;BME280;2386;42.138;24.746;2022-12-24T04:12:06;99466.19;;;2.91;100.00
4745;BME280;2386;42.138;24.746;2022-12-24T04:14:32;99473.19;;;3.07;100.00
4745;BME280;2386;42.138;24.746;2022-12-24T04:16:57;99477.78;;;3.13;100.00
4745;BME280;2386;42.138;24.746;2022-12-24T04:19:23;99467.72;;;3.15;100.00
4745;BME280;2386;42.138;24.746;2022-12-24T04:21:48;99482.41;;;3.19;100.00
4745;BME280;2386;42.138;24.746;2022-12-24T04:24:13;99473.81;;;3.09;100.00
4745;BME280;2386;42.138;24.746;2022-12-24T04:30:01;99463.66;;;3.19;100.00
4745;BME280;2386;42.138;24.746;2022-12-24T04:32:26;99474.09;;;3.29;100.00
4745;BME280;2386;42.138;24.746;2022-12-24T04:34:51;99495.97;;;3.33;100.00
4745;BME280;2386;42.138;24.746;2022-12-24T04:37:17;99480.81;;;3.40;100.00
4745;BME280;2386;42.138;24.746;2022-12-24T04:39:42;99489.22;;;3.37;100.00
4745;BME280;2386;42.138;24.746;2022-12-24T04:42:07;99469.75;;;3.28;100.00
4745;BME280;2386;42.138;24.746;2022-12-24T04:47:54;99495.72;;;3.27;100.00
4745;BME280;2386;42.138;24.746;2022-12-24T04:50:20;99487.88;;;3.11;100.00
4745;BME280;2386;42.138;24.746;2022-12-24T04:52:45;99483.63;;;3.02;100.00
4745;BME280;2386;42.138;24.746;2022-12-24T04:55:10;99493.88;;;3.13;100.00
4745;BME280;2386;42.138;24.746;2022-12-24T04:57:36;99491.06;;;3.36;100.00
4745;BME280;2386;42.138;24.746;2022-12-24T05:00:03;99481.13;;;3.15;100.00
4745;BME280;2386;42.138;24.746;2022-12-24T05:02:29;99497.00;;;3.17;100.00
4745;BME280;2386;42.138;24.746;2022-12-24T05:04:54;99486.31;;;3.02;100.00
4745;BME280;2386;42.138;24.746;2022-12-24T05:07:19;99483.09;;;2.92;100.00
4745;BME280;2386;42.138;24.746;2022-12-24T05:09:45;99498.03;;;3.01;100.00
4745;BME280;2386;42.138;24.746;2022-12-24T05:12:10;99490.84;;;2.87;100.00
4745;BME280;2386;42.138;24.746;2022-12-24T05:14:36;99487.16;;;2.88;100.00
4745;BME280;2386;42.138;24.746;2022-12-24T05:17:01;99491.41;;;2.97;100.00
4745;BME280;2386;42.138;24.746;2022-12-24T05:19:26;99478.63;;;2.99;100.00
4745;BME280;2386;42.138;24.746;2022-12-24T05:21:52;99488.34;;;3.00;100.00
4745;BME280;2386;42.138;24.746;2022-12-24T05:24:36;99482.81;;;2.87;100.00
4745;BME280;2386;42.138;24.746;2022-12-24T05:27:20;99491.78;;;2.94;100.00
4745;BME280;2386;42.138;24.746;2022-12-24T05:29:45;99483.19;;;2.84;100.00
4745;BME280;2386;42.138;24.746;2022-12-24T05:32:11;99482.72;;;2.95;100.00
4745;BME280;2386;42.138;24.746;2022-12-24T05:34:36;99480.06;;;2.95;100.00
4745;BME280;2386;42.138;24.746;2022-12-24T05:37:02;99489.91;;;3.09;100.00
4745;BME280;2386;42.138;24.746;2022-12-24T05:39:27;99487.50;;;3.14;100.00
4745;BME280;2386;42.138;24.746;2022-12-24T05:41:53;99483.06;;;3.07;100.00
4745;BME280;2386;42.138;24.746;2022-12-24T05:44:18;99500.63;;;3.24;100.00
4745;BME280;2386;42.138;24.746;2022-12-24T05:46:44;99505.31;;;3.22;100.00
4745;BME280;2386;42.138;24.746;2022-12-24T05:49:10;99503.66;;;3.06;100.00
4745;BME280;2386;42.138;24.746;2022-12-24T05:51:35;99484.81;;;3.00;100.00
4745;BME280;2386;42.138;24.746;2022-12-24T05:54:01;99491.28;;;3.05;100.00
4745;BME280;2386;42.138;24.746;2022-12-24T05:56:26;99509.41;;;3.18;100.00
4745;BME280;2386;42.138;24.746;2022-12-24T05:58:52;99504.03;;;3.18;100.00
4745;BME280;2386;42.138;24.746;2022-12-24T06:01:19;99518.09;;;3.20;100.00
4745;BME280;2386;42.138;24.746;2022-12-24T06:03:44;99517.16;;;3.13;100.00
4745;BME280;2386;42.138;24.746;2022-12-24T06:06:13;99509.69;;;3.08;100.00
4745;BME280;2386;42.138;24.746;2022-12-24T06:08:39;99511.72;;;3.06;100.00
4745;BME280;2386;42.138;24.746;2022-12-24T06:11:10;99506.25;;;3.00;100.00
4745;BME280;2386;42.138;24.746;2022-12-24T06:13:36;99529.44;;;3.07;100.00
4745;BME280;2386;42.138;24.746;2022-12-24T06:16:04;99545.06;;;3.18;100.00
4745;BME280;2386;42.138;24.746;2022-12-24T06:18:32;99535.28;;;3.25;100.00
4745;BME280;2386;42.138;24.746;2022-12-24T06:20:58;99517.34;;;3.11;100.00
4745;BME280;2386;42.138;24.746;2022-12-24T06:23:24;99519.38;;;3.09;100.00
4745;BME280;2386;42.138;24.746;2022-12-24T06:25:50;99532.59;;;3.25;100.00
4745;BME280;2386;42.138;24.746;2022-12-24T06:28:16;99538.97;;;3.24;100.00
4745;BME280;2386;42.138;24.746;2022-12-24T06:30:48;99524.72;;;3.24;100.00
4745;BME280;2386;42.138;24.746;2022-12-24T06:33:17;99541.63;;;3.39;100.00
4745;BME280;2386;42.138;24.746;2022-12-24T06:35:46;99519.84;;;3.27;100.00
4745;BME280;2386;42.138;24.746;2022-12-24T06:38:13;99520.84;;;3.26;100.00
4745;BME280;2386;42.138;24.746;2022-12-24T06:40:39;99535.63;;;3.37;100.00
4745;BME280;2386;42.138;24.746;2022-12-24T06:43:05;99525.47;;;3.18;100.00
4745;BME280;2386;42.138;24.746;2022-12-24T06:45:31;99548.84;;;3.39;100.00
4745;BME280;2386;42.138;24.746;2022-12-24T06:47:57;99537.03;;;3.33;100.00
4745;BME280;2386;42.138;24.746;2022-12-24T06:50:22;99546.06;;;3.47;100.00
4745;BME280;2386;42.138;24.746;2022-12-24T06:52:47;99533.22;;;3.42;100.00
4745;BME280;2386;42.138;24.746;2022-12-24T06:55:13;99537.09;;;3.54;100.00
4745;BME280;2386;42.138;24.746;2022-12-24T06:57:39;99532.94;;;3.52;100.00
4745;BME280;2386;42.138;24.746;2022-12-24T07:00:06;99531.28;;;3.51;100.00
4745;BME280;2386;42.138;24.746;2022-12-24T07:02:32;99524.66;;;3.68;100.00
4745;BME280;2386;42.138;24.746;2022-12-24T07:04:57;99519.94;;;3.70;100.00
4745;BME280;2386;42.138;24.746;2022-12-24T07:07:22;99527.84;;;3.78;100.00
4745;BME280;2386;42.138;24.746;2022-12-24T07:09:48;99528.38;;;3.88;100.00
4745;BME280;2386;42.138;24.746;2022-12-24T07:12:13;99525.50;;;3.90;100.00
4745;BME280;2386;42.138;24.746;2022-12-24T07:14:38;99520.44;;;3.80;100.00
4745;BME280;2386;42.138;24.746;2022-12-24T07:17:04;99540.91;;;4.03;100.00
4745;BME280;2386;42.138;24.746;2022-12-24T07:19:30;99525.97;;;3.93;100.00
4745;BME280;2386;42.138;24.746;2022-12-24T07:21:57;99533.25;;;4.00;100.00
4745;BME280;2386;42.138;24.746;2022-12-24T07:24:22;99536.84;;;4.07;100.00
4745;BME280;2386;42.138;24.746;2022-12-24T07:26:48;99526.53;;;4.10;100.00
4745;BME280;2386;42.138;24.746;2022-12-24T07:29:13;99532.50;;;4.27;100.00
4745;BME280;2386;42.138;24.746;2022-12-24T07:31:38;99525.91;;;4.29;100.00
4745;BME280;2386;42.138;24.746;2022-12-24T07:34:04;99532.56;;;4.34;100.00
4745;BME280;2386;42.138;24.746;2022-12-24T07:36:29;99522.94;;;4.46;100.00
4745;BME280;2386;42.138;24.746;2022-12-24T07:38:55;99520.28;;;4.52;100.00
4745;BME280;2386;42.138;24.746;2022-12-24T07:41:29;99531.19;;;4.72;100.00
4745;BME280;2386;42.138;24.746;2022-12-24T07:43:55;99537.94;;;4.89;100.00
4745;BME280;2386;42.138;24.746;2022-12-24T07:46:20;99532.69;;;5.09;100.00
4745;BME280;2386;42.138;24.746;2022-12-24T07:48:46;99541.84;;;5.21;100.00
4745;BME280;2386;42.138;24.746;2022-12-24T07:51:11;99537.56;;;5.34;100.00
4745;BME280;2386;42.138;24.746;2022-12-24T07:53:37;99543.66;;;5.49;100.00
4745;BME280;2386;42.138;24.746;2022-12-24T07:56:03;99550.19;;;5.74;100.00
4745;BME280;2386;42.138;24.746;2022-12-24T07:58:28;99549.19;;;5.88;100.00
4745;BME280;2386;42.138;24.746;2022-12-24T08:00:56;99544.69;;;6.09;100.00
4745;BME280;2386;42.138;24.746;2022-12-24T08:03:21;99554.88;;;6.20;100.00
4745;BME280;2386;42.138;24.746;2022-12-24T08:05:47;99560.91;;;6.35;100.00
4745;BME280;2386;42.138;24.746;2022-12-24T08:08:12;99573.16;;;6.44;100.00
4745;BME280;2386;42.138;24.746;2022-12-24T08:10:39;99562.59;;;6.49;100.00
4745;BME280;2386;42.138;24.746;2022-12-24T08:13:05;99576.47;;;6.73;100.00
4745;BME280;2386;42.138;24.746;2022-12-24T08:15:31;99582.06;;;6.84;100.00
4745;BME280;2386;42.138;24.746;2022-12-24T08:17:56;99582.06;;;6.91;100.00
4745;BME280;2386;42.138;24.746;2022-12-24T08:20:21;99567.34;;;6.74;100.00
4745;BME280;2386;42.138;24.746;2022-12-24T08:22:47;99585.19;;;6.75;100.00
4745;BME280;2386;42.138;24.746;2022-12-24T08:25:13;99587.69;;;6.56;100.00
4745;BME280;2386;42.138;24.746;2022-12-24T08:27:38;99576.50;;;6.66;100.00
4745;BME280;2386;42.138;24.746;2022-12-24T08:30:05;99584.56;;;6.73;100.00
4745;BME280;2386;42.138;24.746;2022-12-24T08:32:30;99584.16;;;6.76;100.00
4745;BME280;2386;42.138;24.746;2022-12-24T08:34:57;99582.06;;;6.91;100.00
4745;BME280;2386;42.138;24.746;2022-12-24T08:37:24;99577.91;;;6.95;100.00
4745;BME280;2386;42.138;24.746;2022-12-24T08:39:49;99574.19;;;7.09;100.00
4745;BME280;2386;42.138;24.746;2022-12-24T08:42:14;99568.38;;;7.12;100.00
4745;BME280;2386;42.138;24.746;2022-12-24T08:44:40;99567.75;;;7.17;100.00
4745;BME280;2386;42.138;24.746;2022-12-24T08:47:05;99573.94;;;7.24;100.00
4745;BME280;2386;42.138;24.746;2022-12-24T08:49:30;99559.66;;;7.10;100.00
4745;BME280;2386;42.138;24.746;2022-12-24T08:51:56;99559.84;;;7.22;100.00
4745;BME280;2386;42.138;24.746;2022-12-24T08:54:22;99555.09;;;7.17;100.00
4745;BME280;2386;42.138;24.746;2022-12-24T08:56:48;99551.16;;;7.13;100.00
4745;BME280;2386;42.138;24.746;2022-12-24T08:59:13;99563.78;;;7.19;100.00
4745;BME280;2386;42.138;24.746;2022-12-24T09:01:39;99543.47;;;7.10;100.00
4745;BME280;2386;42.138;24.746;2022-12-24T09:04:04;99554.66;;;7.20;100.00
4745;BME280;2386;42.138;24.746;2022-12-24T09:06:31;99542.63;;;7.16;100.00
4745;BME280;2386;42.138;24.746;2022-12-24T09:08:57;99546.16;;;7.17;100.00
4745;BME280;2386;42.138;24.746;2022-12-24T09:11:22;99567.09;;;7.21;100.00
4745;BME280;2386;42.138;24.746;2022-12-24T09:13:50;99562.53;;;7.35;100.00
4745;BME280;2386;42.138;24.746;2022-12-24T09:16:15;99550.50;;;7.24;100.00
4745;BME280;2386;42.138;24.746;2022-12-24T09:18:41;99543.41;;;7.37;100.00
4745;BME280;2386;42.138;24.746;2022-12-24T09:21:09;99529.66;;;7.45;100.00
4745;BME280;2386;42.138;24.746;2022-12-24T09:23:37;99539.13;;;7.67;100.00
4745;BME280;2386;42.138;24.746;2022-12-24T09:26:19;99535.41;;;7.68;100.00
4745;BME280;2386;42.138;24.746;2022-12-24T09:28:46;99530.94;;;7.87;100.00
4745;BME280;2386;42.138;24.746;2022-12-24T09:31:11;99524.66;;;8.00;100.00
4745;BME280;2386;42.138;24.746;2022-12-24T09:33:39;99531.69;;;8.07;100.00
4745;BME280;2386;42.138;24.746;2022-12-24T09:36:06;99529.09;;;8.19;100.00
4745;BME280;2386;42.138;24.746;2022-12-24T09:38:33;99516.78;;;8.23;100.00
4745;BME280;2386;42.138;24.746;2022-12-24T09:41:09;99523.19;;;8.35;100.00
4745;BME280;2386;42.138;24.746;2022-12-24T09:43:36;99504.66;;;8.39;99.53
4745;BME280;2386;42.138;24.746;2022-12-24T09:46:13;99516.09;;;8.66;99.35
4745;BME280;2386;42.138;24.746;2022-12-24T09:48:46;99507.53;;;8.69;99.13
4745;BME280;2386;42.138;24.746;2022-12-24T09:51:54;99506.38;;;8.83;98.57
4745;BME280;2386;42.138;24.746;2022-12-24T09:54:30;99494.28;;;8.85;98.20
4745;BME280;2386;42.138;24.746;2022-12-24T09:57:03;99503.63;;;9.08;97.58
4745;BME280;2386;42.138;24.746;2022-12-24T09:59:44;99481.59;;;9.04;97.46
4745;BME280;2386;42.138;24.746;2022-12-24T10:02:16;99498.44;;;9.25;97.01
4745;BME280;2386;42.138;24.746;2022-12-24T10:04:42;99485.13;;;9.23;95.21
4745;BME280;2386;42.138;24.746;2022-12-24T10:18:41;99482.31;;;9.66;92.46
4745;BME280;2386;42.138;24.746;2022-12-24T10:21:14;99482.56;;;9.65;89.77
4745;BME280;2386;42.138;24.746;2022-12-24T10:26:57;99458.56;;;9.80;90.60
4745;BME280;2386;42.138;24.746;2022-12-24T10:32:14;99463.94;;;9.98;88.87
4745;BME280;2386;42.138;24.746;2022-12-24T10:37:30;99471.16;;;10.04;90.88
4745;BME280;2386;42.138;24.746;2022-12-24T10:39:57;99461.50;;;10.08;90.45
4745;BME280;2386;42.138;24.746;2022-12-24T10:42:27;99459.69;;;10.20;90.39
4745;BME280;2386;42.138;24.746;2022-12-24T10:45:03;99441.78;;;10.19;89.78
4745;BME280;2386;42.138;24.746;2022-12-24T10:47:32;99453.00;;;10.35;89.74
4745;BME280;2386;42.138;24.746;2022-12-24T10:50:31;99455.69;;;10.46;89.87
4745;BME280;2386;42.138;24.746;2022-12-24T10:54:21;99457.47;;;10.52;90.08
4745;BME280;2386;42.138;24.746;2022-12-24T10:56:16;99454.28;;;10.56;90.29
4745;BME280;2386;42.138;24.746;2022-12-24T10:58:51;99454.06;;;10.57;89.86
4745;BME280;2386;42.138;24.746;2022-12-24T11:01:18;99447.00;;;10.68;89.72
4745;BME280;2386;42.138;24.746;2022-12-24T11:03:44;99442.16;;;10.70;89.29
4745;BME280;2386;42.138;24.746;2022-12-24T11:06:16;99459.03;;;10.83;89.20
4745;BME280;2386;42.138;24.746;2022-12-24T11:08:48;99457.03;;;10.79;86.16
4745;BME280;2386;42.138;24.746;2022-12-24T11:14:37;99465.03;;;10.74;82.58
4745;BME280;2386;42.138;24.746;2022-12-24T11:17:03;99460.44;;;10.74;84.04
4745;BME280;2386;42.138;24.746;2022-12-24T11:19:34;99459.72;;;10.67;86.32
4745;BME280;2386;42.138;24.746;2022-12-24T11:22:16;99446.41;;;10.66;87.36
4745;BME280;2386;42.138;24.746;2022-12-24T11:24:42;99432.00;;;10.53;88.10
4745;BME280;2386;42.138;24.746;2022-12-24T11:27:28;99444.50;;;10.54;89.59
4745;BME280;2386;42.138;24.746;2022-12-24T11:33:15;99447.09;;;10.49;90.19
4745;BME280;2386;42.138;24.746;2022-12-24T11:39:02;99418.94;;;10.39;89.14
4745;BME280;2386;42.138;24.746;2022-12-24T11:41:35;99434.47;;;10.55;89.42
4745;BME280;2386;42.138;24.746;2022-12-24T11:44:03;99420.34;;;10.53;89.48
4745;BME280;2386;42.138;24.746;2022-12-24T11:46:38;99425.16;;;10.63;90.13
4745;BME280;2386;42.138;24.746;2022-12-24T11:49:25;99419.97;;;10.73;90.48
4745;BME280;2386;42.138;24.746;2022-12-24T11:55:20;99425.16;;;11.09;90.80
4745;BME280;2386;42.138;24.746;2022-12-24T12:00:16;99419.72;;;11.09;88.09
4745;BME280;2386;42.138;24.746;2022-12-24T12:02:45;99424.66;;;11.12;88.07
4745;BME280;2386;42.138;24.746;2022-12-24T12:05:16;99428.34;;;11.06;88.13
4745;BME280;2386;42.138;24.746;2022-12-24T12:07:53;99415.25;;;11.03;88.92
4745;BME280;2386;42.138;24.746;2022-12-24T12:10:24;99417.94;;;11.03;89.15
4745;BME280;2386;42.138;24.746;2022-12-24T12:13:04;99424.56;;;11.07;89.24
4745;BME280;2386;42.138;24.746;2022-12-24T12:15:38;99415.81;;;11.05;89.79
4745;BME280;2386;42.138;24.746;2022-12-24T12:18:14;99416.75;;;11.11;90.18
4745;BME280;2386;42.138;24.746;2022-12-24T12:24:23;99412.63;;;11.08;89.25
4745;BME280;2386;42.138;24.746;2022-12-24T12:26:59;99407.69;;;11.05;87.83
4745;BME280;2386;42.138;24.746;2022-12-24T12:29:33;99412.75;;;11.02;87.40
4745;BME280;2386;42.138;24.746;2022-12-24T12:32:06;99413.72;;;10.96;88.48
4745;BME280;2386;42.138;24.746;2022-12-24T12:34:40;99399.69;;;10.87;87.69
4745;BME280;2386;42.138;24.746;2022-12-24T12:37:20;99407.47;;;10.95;87.86
4745;BME280;2386;42.138;24.746;2022-12-24T12:39:48;99412.31;;;10.93;89.25
4745;BME280;2386;42.138;24.746;2022-12-24T12:42:28;99417.72;;;10.93;88.10
4745;BME280;2386;42.138;24.746;2022-12-24T12:45:12;99422.09;;;10.71;90.58
4745;BME280;2386;42.138;24.746;2022-12-24T12:48:01;99423.53;;;10.73;91.11
4745;BME280;2386;42.138;24.746;2022-12-24T12:56:43;99408.78;;;10.81;91.50
4745;BME280;2386;42.138;24.746;2022-12-24T12:59:32;99414.19;;;10.93;92.26
4745;BME280;2386;42.138;24.746;2022-12-24T13:02:11;99412.53;;;10.92;91.48
4745;BME280;2386;42.138;24.746;2022-12-24T13:22:20;99440.84;;;10.61;92.76
4745;BME280;2386;42.138;24.746;2022-12-24T13:24:49;99453.81;;;10.59;94.05
4745;BME280;2386;42.138;24.746;2022-12-24T13:27:25;99448.16;;;10.48;95.21
4745;BME280;2386;42.138;24.746;2022-12-24T13:36:14;99462.41;;;10.44;96.54
4745;BME280;2386;42.138;24.746;2022-12-24T13:38:47;99457.47;;;10.29;95.72
4745;BME280;2386;42.138;24.746;2022-12-24T13:49:41;99463.81;;;10.23;95.46
4745;BME280;2386;42.138;24.746;2022-12-24T13:54:37;99444.41;;;10.08;98.93
4745;BME280;2386;42.138;24.746;2022-12-24T13:57:35;99455.72;;;10.05;98.43
4745;BME280;2386;42.138;24.746;2022-12-24T14:00:26;99469.97;;;10.00;99.13
4745;BME280;2386;42.138;24.746;2022-12-24T14:05:38;99462.84;;;9.87;100.00
4745;BME280;2386;42.138;24.746;2022-12-24T14:08:29;99468.88;;;9.89;100.00
4745;BME280;2386;42.138;24.746;2022-12-24T14:16:09;99451.34;;;9.62;100.00
4745;BME280;2386;42.138;24.746;2022-12-24T14:18:38;99469.72;;;9.60;100.00
4745;BME280;2386;42.138;24.746;2022-12-24T14:21:05;99472.88;;;9.57;100.00
4745;BME280;2386;42.138;24.746;2022-12-24T14:23:56;99463.47;;;9.60;100.00
4745;BME280;2386;42.138;24.746;2022-12-24T14:26:27;99462.03;;;9.57;100.00
4745;BME280;2386;42.138;24.746;2022-12-24T14:28:56;99455.66;;;9.51;100.00
4745;BME280;2386;42.138;24.746;2022-12-24T14:31:23;99450.25;;;9.51;100.00
4745;BME280;2386;42.138;24.746;2022-12-24T14:33:49;99452.81;;;9.46;100.00
4745;BME280;2386;42.138;24.746;2022-12-24T14:36:20;99462.25;;;9.55;100.00
4745;BME280;2386;42.138;24.746;2022-12-24T14:38:46;99462.72;;;9.52;100.00
4745;BME280;2386;42.138;24.746;2022-12-24T14:54:37;99484.47;;;9.28;100.00
4745;BME280;2386;42.138;24.746;2022-12-24T14:59:57;99487.91;;;9.16;100.00
4745;BME280;2386;42.138;24.746;2022-12-24T15:07:30;99460.31;;;9.08;100.00
4745;BME280;2386;42.138;24.746;2022-12-24T15:09:56;99472.88;;;9.02;100.00
4745;BME280;2386;42.138;24.746;2022-12-24T15:12:22;99470.16;;;9.02;100.00
4745;BME280;2386;42.138;24.746;2022-12-24T15:14:48;99474.53;;;9.03;100.00
4745;BME280;2386;42.138;24.746;2022-12-24T15:17:14;99487.38;;;9.08;100.00
4745;BME280;2386;42.138;24.746;2022-12-24T15:19:41;99472.28;;;9.00;100.00
4745;BME280;2386;42.138;24.746;2022-12-24T15:22:12;99480.59;;;8.99;100.00
4745;BME280;2386;42.138;24.746;2022-12-24T15:24:45;99483.84;;;9.07;100.00
4745;BME280;2386;42.138;24.746;2022-12-24T15:27:14;99488.28;;;9.02;100.00
4745;BME280;2386;42.138;24.746;2022-12-24T15:29:45;99500.63;;;9.16;100.00
4745;BME280;2386;42.138;24.746;2022-12-24T15:32:12;99489.09;;;9.02;100.00
4745;BME280;2386;42.138;24.746;2022-12-24T15:34:46;99507.53;;;9.12;100.00
4745;BME280;2386;42.138;24.746;2022-12-24T15:39:38;99515.09;;;9.03;100.00
4745;BME280;2386;42.138;24.746;2022-12-24T15:42:05;99508.94;;;8.96;100.00
4745;BME280;2386;42.138;24.746;2022-12-24T15:44:40;99499.88;;;8.91;100.00
4745;BME280;2386;42.138;24.746;2022-12-24T15:47:14;99511.03;;;8.94;100.00
4745;BME280;2386;42.138;24.746;2022-12-24T15:49:45;99512.91;;;8.94;100.00
4745;BME280;2386;42.138;24.746;2022-12-24T15:52:13;99500.97;;;8.83;100.00
4745;BME280;2386;42.138;24.746;2022-12-24T15:54:45;99527.97;;;8.89;100.00
4745;BME280;2386;42.138;24.746;2022-12-24T15:57:24;99527.97;;;8.89;100.00